createdAt,value
2023-01-13T00:05:43.325Z,7.47
2023-01-13T00:08:14.018Z,8.55
2023-01-13T00:11:06.846Z,13.65
2023-01-13T00:17:03.872Z,12.18
2023-01-13T00:22:19.842Z,7.18
2023-01-13T00:25:32.414Z,5.87
2023-01-13T00:28:23.133Z,12.10
2023-01-13T00:31:07.337Z,17.60
2023-01-13T00:34:19.636Z,19.98
2023-01-13T00:37:14.726Z,12.95
2023-01-13T00:42:40.023Z,18.67
2023-01-13T00:45:08.015Z,15.63
2023-01-13T00:47:42.497Z,10.10
2023-01-13T00:53:31.021Z,17.05
2023-01-13T00:56:00.076Z,13.25
2023-01-13T00:58:35.363Z,18.70
2023-01-13T01:04:24.298Z,20.35
2023-01-13T01:06:54.871Z,15.65
2023-01-13T01:12:32.354Z,25.70
2023-01-13T01:15:25.053Z,21.02
2023-01-13T01:18:16.929Z,17.67
2023-01-13T01:21:00.427Z,9.25
2023-01-13T01:23:31.441Z,20.40
2023-01-13T01:26:05.227Z,16.77
2023-01-13T01:28:58.069Z,18.33
2023-01-13T01:31:40.180Z,15.32
2023-01-13T01:34:32.330Z,19.23
2023-01-13T01:37:02.845Z,23.50
2023-01-13T01:40:01.965Z,19.77
2023-01-13T01:42:47.286Z,12.40
2023-01-13T01:45:45.982Z,20.80
2023-01-13T01:48:21.463Z,19.27
2023-01-13T01:50:59.519Z,11.80
2023-01-13T01:53:35.666Z,8.70
2023-01-13T01:56:03.791Z,17.13
2023-01-13T01:58:38.996Z,19.65
2023-01-13T02:01:07.041Z,22.27
2023-01-13T02:03:39.125Z,12.73
2023-01-13T02:06:13.936Z,22.95
2023-01-13T02:08:44.986Z,18.60
2023-01-13T02:11:52.452Z,24.13
2023-01-13T02:14:26.411Z,20.80
2023-01-13T02:17:22.207Z,24.15
2023-01-13T02:23:38.235Z,17.95
2023-01-13T02:26:42.098Z,21.52
2023-01-13T02:30:24.644Z,25.98
2023-01-13T02:33:25.295Z,12.68
2023-01-13T02:35:54.008Z,22.08
2023-01-13T02:38:58.539Z,13.20
2023-01-13T02:41:59.352Z,15.82
2023-01-13T02:44:34.214Z,17.35
2023-01-13T02:47:26.766Z,18.50
2023-01-13T02:50:10.444Z,15.70
2023-01-13T02:52:48.178Z,19.98
2023-01-13T02:55:22.834Z,14.23
2023-01-13T02:57:51.557Z,22.95
2023-01-13T03:00:21.066Z,25.13
2023-01-13T03:02:49.613Z,22.90
2023-01-13T03:05:18.613Z,22.13
2023-01-13T03:08:00.898Z,27.20
2023-01-13T03:10:51.393Z,20.88
2023-01-13T03:13:43.317Z,27.35
2023-01-13T03:16:38.985Z,17.88
2023-01-13T03:20:17.400Z,20.53
2023-01-13T03:23:04.349Z,30.83
2023-01-13T03:26:09.204Z,18.00
2023-01-13T03:28:44.093Z,19.80
2023-01-13T03:31:36.520Z,27.08
2023-01-13T03:35:02.253Z,24.95
2023-01-13T03:40:32.260Z,20.20
2023-01-13T03:43:26.739Z,10.80
2023-01-13T03:46:00.731Z,19.88
2023-01-13T03:48:30.898Z,18.10
2023-01-13T03:51:37.176Z,24.77
2023-01-13T03:54:14.308Z,17.60
2023-01-13T03:57:02.839Z,20.15
2023-01-13T04:00:03.011Z,28.35
2023-01-13T04:03:17.969Z,19.33
2023-01-13T04:05:51.635Z,18.75
2023-01-13T04:08:25.257Z,16.30
2023-01-13T04:11:06.273Z,17.08
2023-01-13T04:16:37.612Z,9.63
2023-01-13T04:19:06.618Z,20.50
2023-01-13T04:21:35.528Z,19.83
2023-01-13T04:27:32.313Z,16.88
2023-01-13T04:29:59.709Z,16.77
2023-01-13T04:32:27.332Z,17.55
2023-01-13T04:35:01.410Z,19.75
2023-01-13T04:37:32.561Z,17.17
2023-01-13T04:40:00.240Z,16.38
2023-01-13T04:42:27.777Z,14.63
2023-01-13T04:44:55.071Z,14.00
2023-01-13T04:47:46.392Z,17.88
2023-01-13T04:50:14.019Z,8.85
2023-01-13T04:52:41.313Z,14.75
2023-01-13T04:55:09.367Z,15.80
2023-01-13T04:57:37.753Z,9.05
2023-01-13T05:00:10.356Z,10.38
2023-01-13T05:02:37.770Z,9.98
2023-01-13T05:05:07.603Z,7.60
2023-01-13T05:07:36.036Z,8.73
2023-01-13T05:10:03.869Z,8.30
2023-01-13T05:12:50.089Z,11.30
2023-01-13T05:18:09.547Z,0.98
2023-01-13T05:20:41.641Z,9.32
2023-01-13T05:23:28.828Z,3.78
2023-01-13T05:28:43.776Z,5.68
2023-01-13T05:31:18.010Z,13.15
2023-01-13T05:33:45.068Z,7.90
2023-01-13T05:36:13.146Z,9.73
2023-01-13T05:38:45.169Z,2.30
2023-01-13T05:41:48.259Z,8.38
2023-01-13T05:44:40.603Z,6.78
2023-01-13T05:47:07.976Z,10.82
2023-01-13T05:49:42.201Z,7.47
2023-01-13T05:52:12.671Z,6.97
2023-01-13T05:54:41.536Z,10.65
2023-01-13T05:57:08.586Z,7.60
2023-01-13T05:59:37.003Z,10.25
2023-01-13T06:02:13.198Z,3.55
2023-01-13T06:04:40.599Z,8.27
2023-01-13T06:07:11.720Z,9.38
2023-01-13T06:09:38.963Z,7.00
2023-01-13T06:12:17.363Z,6.25
2023-01-13T06:14:44.870Z,6.82
2023-01-13T06:17:14.889Z,2.60
2023-01-13T06:19:45.015Z,12.20
2023-01-13T06:22:27.379Z,11.05
2023-01-13T06:24:54.979Z,12.88
2023-01-13T06:27:28.006Z,8.95
2023-01-13T06:29:58.704Z,8.18
2023-01-13T06:32:39.917Z,8.93
2023-01-13T06:35:15.235Z,4.35
2023-01-13T06:37:58.170Z,5.80
2023-01-13T06:40:27.209Z,8.27
2023-01-13T06:43:16.539Z,9.93
2023-01-13T06:45:53.316Z,6.05
2023-01-13T06:48:35.541Z,11.15
2023-01-13T06:51:05.327Z,7.95
2023-01-13T06:53:38.850Z,8.32
2023-01-13T06:56:31.594Z,17.10
2023-01-13T06:58:58.566Z,15.55
2023-01-13T07:01:42.037Z,10.02
2023-01-13T07:06:53.233Z,8.80
2023-01-13T07:09:20.217Z,13.93
2023-01-13T07:11:47.711Z,9.85
2023-01-13T07:14:37.681Z,17.52
2023-01-13T07:17:09.353Z,12.60
2023-01-13T07:19:42.612Z,19.23
2023-01-13T07:22:09.853Z,5.10
2023-01-13T07:24:38.947Z,8.73
2023-01-13T07:27:06.056Z,8.63
2023-01-13T07:29:44.333Z,11.80
2023-01-13T07:32:11.437Z,7.97
2023-01-13T07:34:38.392Z,14.10
2023-01-13T07:37:05.413Z,12.95
2023-01-13T07:39:32.461Z,3.75
2023-01-13T07:42:18.039Z,14.80
2023-01-13T07:44:45.366Z,9.75
2023-01-13T07:47:13.124Z,12.18
2023-01-13T07:49:40.439Z,12.85
2023-01-13T07:52:07.438Z,9.27
2023-01-13T07:54:40.681Z,11.27
2023-01-13T07:57:08.971Z,6.03
2023-01-13T07:59:43.659Z,16.70
2023-01-13T08:02:14.224Z,14.50
2023-01-13T08:04:41.740Z,23.77
2023-01-13T08:07:10.179Z,9.63
2023-01-13T08:09:37.225Z,8.27
2023-01-13T08:12:23.335Z,9.90
2023-01-13T08:14:51.869Z,13.65
2023-01-13T08:17:20.598Z,17.05
2023-01-13T08:19:53.384Z,8.93
2023-01-13T08:22:20.439Z,6.75
2023-01-13T08:24:48.388Z,11.90
2023-01-13T08:27:20.793Z,10.20
2023-01-13T08:29:50.726Z,20.73
2023-01-13T08:32:31.224Z,5.05
2023-01-13T08:35:02.058Z,10.55
2023-01-13T08:37:29.761Z,14.07
2023-01-13T08:39:59.340Z,9.88
2023-01-13T08:42:29.657Z,13.23
2023-01-13T08:44:56.858Z,2.47
2023-01-13T08:47:24.771Z,15.90
2023-01-13T08:49:51.922Z,8.63
2023-01-13T08:52:18.973Z,8.48
2023-01-13T08:54:46.487Z,19.92
2023-01-13T08:57:15.477Z,12.93
2023-01-13T08:59:48.770Z,18.33
2023-01-13T09:02:24.197Z,12.38
2023-01-13T09:04:52.182Z,7.80
2023-01-13T09:07:20.778Z,13.27
2023-01-13T09:09:48.005Z,9.35
2023-01-13T09:12:45.904Z,10.13
2023-01-13T09:15:14.004Z,20.80
2023-01-13T09:17:41.323Z,16.13
2023-01-13T09:20:10.181Z,11.70
2023-01-13T09:22:53.482Z,12.20
2023-01-13T09:25:20.574Z,9.73
2023-01-13T09:27:47.740Z,19.90
2023-01-13T09:30:15.157Z,11.30
2023-01-13T09:32:42.565Z,13.25
2023-01-13T09:35:09.958Z,12.50
2023-01-13T09:37:40.437Z,10.55
2023-01-13T09:40:23.852Z,7.03
2023-01-13T09:43:22.349Z,11.18
2023-01-13T09:46:30.685Z,18.83
2023-01-13T09:48:58.892Z,14.95
2023-01-13T09:51:35.870Z,18.05
2023-01-13T09:54:13.564Z,8.68
2023-01-13T09:56:40.576Z,14.70
2023-01-13T09:59:13.182Z,15.07
2023-01-13T10:02:24.962Z,14.07
2023-01-13T10:05:39.198Z,20.58
2023-01-13T10:08:20.835Z,18.08
2023-01-13T10:10:57.036Z,16.52
2023-01-13T10:13:30.937Z,7.22
2023-01-13T10:16:29.844Z,21.60
2023-01-13T10:19:12.644Z,20.70
2023-01-13T10:22:22.957Z,14.80
2023-01-13T10:25:02.081Z,13.43
2023-01-13T10:27:38.801Z,21.30
2023-01-13T10:30:34.087Z,15.50
2023-01-13T10:33:27.725Z,13.15
2023-01-13T10:36:12.247Z,9.45
2023-01-13T10:38:51.198Z,13.50
2023-01-13T10:41:27.610Z,22.80
2023-01-13T10:44:10.295Z,14.93
2023-01-13T10:46:59.258Z,28.63
2023-01-13T10:49:38.721Z,18.27
2023-01-13T10:52:27.941Z,12.50
2023-01-13T10:55:00.148Z,11.63
2023-01-13T10:57:33.693Z,20.65
2023-01-13T11:00:05.004Z,18.65
2023-01-13T11:02:35.892Z,10.30
2023-01-13T11:05:25.076Z,15.20
2023-01-13T11:07:55.094Z,18.25
2023-01-13T11:10:29.233Z,10.07
2023-01-13T11:13:17.061Z,13.50
2023-01-13T11:16:13.519Z,21.23
2023-01-13T11:19:12.313Z,18.63
2023-01-13T11:21:56.594Z,22.15
2023-01-13T11:24:52.836Z,21.42
2023-01-13T11:27:40.834Z,24.63
2023-01-13T11:30:30.687Z,25.83
2023-01-13T11:33:16.556Z,11.88
2023-01-13T11:36:14.306Z,22.63
2023-01-13T11:38:50.052Z,14.20
2023-01-13T11:45:17.911Z,16.38
2023-01-13T11:47:54.787Z,27.42
2023-01-13T11:50:54.263Z,21.67
2023-01-13T11:53:58.902Z,20.60
2023-01-13T11:57:05.288Z,11.10
2023-01-13T12:00:12.406Z,18.80
2023-01-13T12:06:40.466Z,14.18
2023-01-13T12:10:00.616Z,13.13
2023-01-13T12:12:53.249Z,14.25
2023-01-13T12:15:23.888Z,2.22
2023-01-13T12:18:26.027Z,13.80
2023-01-13T12:20:55.881Z,14.68
2023-01-13T12:23:32.832Z,9.20
2023-01-13T12:28:43.282Z,12.43
2023-01-13T12:31:11.671Z,14.45
2023-01-13T12:33:51.532Z,13.35
2023-01-13T12:36:48.348Z,12.15
2023-01-13T12:39:50.288Z,16.43
2023-01-13T12:43:29.951Z,14.87
2023-01-13T12:46:19.725Z,16.13
2023-01-13T12:48:56.974Z,13.35
2023-01-13T13:00:05.803Z,8.68
2023-01-13T13:03:08.135Z,6.60
2023-01-13T13:06:11.294Z,23.08
2023-01-13T13:08:41.307Z,13.13
2023-01-13T13:14:37.388Z,12.18
2023-01-13T13:17:08.421Z,8.85
2023-01-13T13:20:21.516Z,11.25
2023-01-13T13:22:52.136Z,6.28
2023-01-13T13:28:18.388Z,9.60
2023-01-13T13:31:04.899Z,10.45
2023-01-13T13:33:57.109Z,20.38
2023-01-13T13:36:53.252Z,5.10
2023-01-13T13:39:46.155Z,8.95
2023-01-13T13:42:37.033Z,17.75
2023-01-13T13:48:39.359Z,14.97
2023-01-13T13:51:27.691Z,10.23
2023-01-13T13:54:33.905Z,7.75
2023-01-13T13:57:46.607Z,12.77
2023-01-13T14:00:21.593Z,6.32
2023-01-13T14:03:26.974Z,10.02
2023-01-13T14:12:09.273Z,5.60
2023-01-13T14:15:01.524Z,9.18
2023-01-13T14:17:52.952Z,9.97
2023-01-13T14:20:21.876Z,6.85
2023-01-13T14:23:01.762Z,4.70
2023-01-13T14:25:39.899Z,9.13
2023-01-13T14:28:13.596Z,8.85
2023-01-13T14:33:44.144Z,7.95
2023-01-13T14:36:42.982Z,8.10
2023-01-13T14:39:11.523Z,4.82
2023-01-13T14:42:14.154Z,4.80
2023-01-13T14:44:46.923Z,1.88
2023-01-13T14:47:39.701Z,4.50
2023-01-13T14:56:50.225Z,7.25
2023-01-13T14:59:42.589Z,9.00
2023-01-13T15:08:27.874Z,5.67
2023-01-13T15:11:25.323Z,12.18
2023-01-13T15:14:23.345Z,7.40
2023-01-13T15:16:50.676Z,8.20
2023-01-13T15:19:36.382Z,7.57
2023-01-13T15:22:07.906Z,6.22
2023-01-13T15:24:40.653Z,13.77
2023-01-13T15:27:22.596Z,14.27
2023-01-13T15:29:50.277Z,9.10
2023-01-13T15:32:22.065Z,12.90
2023-01-13T15:34:49.590Z,13.20
2023-01-13T15:37:19.768Z,14.25
2023-01-13T15:39:47.961Z,9.75
2023-01-13T15:42:36.997Z,15.13
2023-01-13T15:47:37.416Z,9.02
2023-01-13T15:50:05.151Z,8.70
2023-01-13T15:52:33.071Z,9.43
2023-01-13T15:57:59.301Z,9.70
2023-01-13T16:00:52.284Z,12.32
2023-01-13T16:06:21.541Z,6.75
2023-01-13T16:08:48.722Z,5.70
2023-01-13T16:11:16.540Z,11.10
2023-01-13T16:13:44.013Z,15.05
2023-01-13T16:16:30.055Z,4.43
2023-01-13T16:22:00.275Z,4.67
2023-01-13T16:24:31.636Z,10.18
2023-01-13T16:30:01.075Z,7.78
2023-01-13T16:32:28.137Z,13.15
2023-01-13T16:34:55.480Z,12.70
2023-01-13T16:37:26.410Z,10.43
2023-01-13T16:39:54.866Z,12.93
2023-01-13T16:42:22.457Z,10.75
2023-01-13T16:44:59.852Z,9.70
2023-01-13T16:47:42.571Z,8.27
2023-01-13T16:50:31.350Z,6.18
2023-01-13T16:52:58.815Z,12.95
2023-01-13T16:55:27.047Z,6.03
2023-01-13T16:57:55.092Z,6.65
2023-01-13T17:00:23.069Z,11.23
2023-01-13T17:02:50.979Z,8.45
2023-01-13T17:05:18.821Z,11.25
2023-01-13T17:07:56.138Z,15.77
2023-01-13T17:10:25.626Z,9.27
2023-01-13T17:12:56.108Z,12.88
2023-01-13T17:15:25.906Z,23.60
2023-01-13T17:17:55.308Z,9.00
2023-01-13T17:20:22.498Z,9.98
2023-01-13T17:22:58.191Z,13.05
2023-01-13T17:25:26.503Z,9.98
2023-01-13T17:27:55.236Z,6.97
2023-01-13T17:30:22.352Z,4.80
2023-01-13T17:32:49.259Z,8.98
2023-01-13T17:35:23.151Z,7.57
2023-01-13T17:37:51.608Z,3.67
2023-01-13T17:43:00.759Z,5.75
2023-01-13T17:45:28.633Z,12.23
2023-01-13T17:48:02.861Z,8.15
2023-01-13T17:50:31.240Z,12.25
2023-01-13T17:52:58.231Z,9.60
2023-01-13T17:55:25.372Z,7.38
2023-01-13T17:57:54.846Z,8.15
2023-01-13T18:00:30.346Z,10.13
2023-01-13T18:02:57.364Z,10.57
2023-01-13T18:05:25.595Z,6.32
2023-01-13T18:07:53.066Z,10.93
2023-01-13T18:10:28.812Z,4.95
2023-01-13T18:15:24.018Z,1.85
2023-01-13T18:17:51.034Z,1.67
2023-01-13T18:20:38.316Z,5.32
2023-01-13T18:23:25.267Z,3.03
2023-01-13T18:26:11.911Z,5.15
2023-01-13T18:28:46.438Z,6.70
2023-01-13T18:33:41.618Z,2.83
2023-01-13T18:36:09.252Z,0.88
2023-01-13T18:38:39.804Z,3.17
2023-01-13T18:41:27.832Z,4.70
2023-01-13T18:43:54.880Z,2.38
2023-01-13T18:46:25.237Z,1.20
2023-01-13T18:48:52.379Z,3.55
2023-01-13T18:51:27.344Z,6.63
2023-01-13T18:53:54.589Z,0.50
2023-01-13T18:56:22.677Z,3.67
2023-01-13T18:58:53.470Z,4.43
2023-01-13T19:01:28.265Z,1.58
2023-01-13T19:03:59.756Z,6.43
2023-01-13T19:06:34.615Z,6.78
2023-01-13T19:09:08.780Z,8.37
2023-01-13T19:11:36.260Z,9.63
2023-01-13T19:14:04.120Z,4.32
2023-01-13T19:16:31.231Z,6.68
2023-01-13T19:19:04.578Z,5.57
2023-01-13T19:21:34.145Z,12.80
2023-01-13T19:24:05.208Z,4.15
2023-01-13T19:26:32.198Z,12.77
2023-01-13T19:28:59.287Z,9.57
2023-01-13T19:31:26.233Z,9.75
2023-01-13T19:33:58.074Z,6.97
2023-01-13T19:36:29.188Z,13.35
2023-01-13T19:38:59.911Z,8.50
2023-01-13T19:41:46.144Z,7.55
2023-01-13T19:44:31.872Z,4.50
2023-01-13T19:46:59.030Z,3.53
2023-01-13T19:49:26.103Z,4.72
2023-01-13T19:52:02.475Z,2.60
2023-01-13T19:54:29.871Z,1.98
2023-01-13T19:56:57.067Z,3.28
2023-01-13T19:59:29.230Z,5.15
2023-01-13T20:02:02.162Z,2.80
2023-01-13T20:04:37.781Z,6.50
2023-01-13T20:09:34.833Z,3.00
2023-01-13T20:12:09.301Z,3.40
2023-01-13T20:14:36.375Z,1.23
2023-01-13T20:17:03.496Z,8.98
2023-01-13T20:19:30.445Z,8.30
2023-01-13T20:21:57.452Z,3.03
2023-01-13T20:24:26.285Z,3.92
2023-01-13T20:26:57.134Z,4.85
2023-01-13T20:29:24.375Z,6.32
2023-01-13T20:31:51.881Z,6.65
2023-01-13T20:34:29.750Z,8.57
2023-01-13T20:37:14.029Z,3.25
2023-01-13T20:39:45.188Z,4.68
2023-01-13T20:42:30.635Z,10.80
2023-01-13T20:44:59.422Z,9.27
2023-01-13T20:47:30.172Z,8.30
2023-01-13T20:49:58.986Z,5.82
2023-01-13T20:52:26.294Z,11.13
2023-01-13T20:54:53.451Z,4.32
2023-01-13T20:57:23.628Z,5.88
2023-01-13T20:59:50.743Z,5.28
2023-01-13T21:02:18.757Z,5.63
2023-01-13T21:04:46.119Z,10.68
2023-01-13T21:07:16.207Z,6.53
2023-01-13T21:09:43.417Z,7.22
2023-01-13T21:12:33.888Z,7.00
2023-01-13T21:15:19.874Z,6.68
2023-01-13T21:18:09.020Z,4.45
2023-01-13T21:20:38.661Z,5.85
2023-01-13T21:23:07.058Z,3.97
2023-01-13T21:25:36.836Z,8.07
2023-01-13T21:28:06.756Z,3.28
2023-01-13T21:30:37.517Z,2.45
2023-01-13T21:33:08.452Z,5.30
2023-01-13T21:35:39.078Z,4.47
2023-01-13T21:38:06.864Z,6.65
2023-01-13T21:40:39.622Z,6.35
2023-01-13T21:43:25.944Z,4.20
2023-01-13T21:48:40.733Z,4.03
2023-01-13T21:51:08.307Z,6.82
2023-01-13T21:53:36.722Z,3.35
2023-01-13T21:56:04.034Z,3.63
2023-01-13T21:58:32.743Z,5.53
2023-01-13T22:01:02.870Z,6.22
2023-01-13T22:03:30.674Z,5.25
2023-01-13T22:05:57.908Z,6.07
2023-01-13T22:08:25.025Z,10.60
2023-01-13T22:11:00.255Z,9.38
2023-01-13T22:13:48.050Z,5.93
2023-01-13T22:16:17.478Z,11.48
2023-01-13T22:18:46.222Z,9.75
2023-01-13T22:21:17.672Z,9.15
2023-01-13T22:23:45.529Z,6.50
2023-01-13T22:26:13.474Z,5.53
2023-01-13T22:28:44.781Z,13.93
2023-01-13T22:31:16.036Z,12.77
2023-01-13T22:33:47.173Z,8.45
2023-01-13T22:36:15.590Z,19.75
2023-01-13T22:38:42.980Z,18.73
2023-01-13T22:41:11.057Z,6.97
2023-01-13T22:44:09.773Z,8.65
2023-01-13T22:49:19.351Z,13.52
2023-01-13T22:51:56.613Z,13.05
2023-01-13T22:54:25.323Z,9.68
2023-01-13T22:56:52.701Z,7.22
2023-01-13T22:59:22.161Z,11.48
2023-01-13T23:01:49.497Z,7.93
2023-01-13T23:04:42.264Z,5.85
2023-01-13T23:07:34.235Z,19.35
2023-01-13T23:10:01.408Z,10.07
2023-01-13T23:12:54.058Z,11.25
2023-01-13T23:15:21.215Z,12.80
2023-01-13T23:17:52.226Z,9.40
2023-01-13T23:20:19.413Z,9.70
2023-01-13T23:22:46.738Z,8.15
2023-01-13T23:25:16.988Z,5.93
2023-01-13T23:27:44.140Z,12.20
2023-01-13T23:30:11.854Z,7.22
2023-01-13T23:33:03.429Z,10.07
2023-01-13T23:35:30.618Z,8.68
2023-01-13T23:37:57.938Z,12.45
2023-01-13T23:40:25.317Z,8.65
2023-01-13T23:42:52.757Z,9.50
2023-01-13T23:45:20.173Z,6.68
2023-01-13T23:47:47.873Z,11.80
2023-01-13T23:53:40.427Z,10.57
2023-01-13T23:56:18.596Z,19.40
